Time;durP1;ratioP1;P1;durP2;ratioP2;P2;SDS_P1;SDS_P2;PMS_P1;PMS_P2;Temp;Humidity;BMP_temperature;BMP_pressure;BME280_temperature;BME280_humidity;BME280_pressure;Samples;Min_cycle;Max_cycle;Signal;HPM_P1;HPM_P2
2023/08/08 00:00:48;;;;;;;0.60;0.60;;;;;;;19.48;nan;100659.56;4987644;28;20723;-85
2023/08/08 00:03:13;;;;;;;0.63;0.63;;;;;;;19.49;nan;100649.88;4971958;28;20034;-85
2023/08/08 00:05:39;;;;;;;0.60;0.60;;;;;;;19.48;nan;100645.56;4975830;28;20743;-85
2023/08/08 00:08:05;;;;;;;0.55;0.55;;;;;;;19.48;nan;100648.19;4989843;28;20084;-85
2023/08/08 00:10:30;;;;;;;0.50;0.50;;;;;;;19.48;nan;100642.94;4988286;28;20536;-85
2023/08/08 00:12:56;;;;;;;0.68;0.68;;;;;;;19.48;nan;100645.56;4987215;28;20030;-85
2023/08/08 00:15:21;;;;;;;0.50;0.50;;;;;;;19.47;nan;100647.34;4986437;28;20035;-85
2023/08/08 00:17:46;;;;;;;0.60;0.60;;;;;;;19.47;nan;100641.25;4980051;28;20042;-84
2023/08/08 00:20:12;;;;;;;0.70;0.70;;;;;;;19.47;nan;100644.72;4988186;28;20045;-85
2023/08/08 00:22:38;;;;;;;0.60;0.60;;;;;;;19.48;nan;100645.56;4973334;28;20105;-85
2023/08/08 00:25:03;;;;;;;0.50;0.50;;;;;;;19.48;nan;100642.94;4998144;28;20032;-84
2023/08/08 00:27:29;;;;;;;0.60;0.60;;;;;;;19.48;nan;100642.94;4969944;28;20057;-85
2023/08/08 00:29:54;;;;;;;0.55;0.55;;;;;;;19.48;nan;100650.84;4972039;28;20826;-84
2023/08/08 00:32:20;;;;;;;0.57;0.57;;;;;;;19.48;nan;100648.19;4967680;28;20121;-84
2023/08/08 00:34:48;;;;;;;0.57;0.57;;;;;;;19.47;nan;100642.09;4979421;28;20053;-85
2023/08/08 00:37:14;;;;;;;0.60;0.60;;;;;;;19.47;nan;100644.72;4987247;28;20073;-85
2023/08/08 00:39:42;;;;;;;0.52;0.52;;;;;;;19.48;nan;100645.56;4990590;28;20196;-85
2023/08/08 00:42:07;;;;;;;0.55;0.55;;;;;;;19.47;nan;100641.25;4988694;28;20102;-85
2023/08/08 00:44:32;;;;;;;0.60;0.60;;;;;;;19.47;nan;100647.34;4985719;28;20133;-85
2023/08/08 00:46:58;;;;;;;0.70;0.70;;;;;;;19.47;nan;100642.09;4969627;28;20165;-85
2023/08/08 00:49:23;;;;;;;0.50;0.50;;;;;;;19.46;nan;100636.94;4986872;28;20029;-85
2023/08/08 00:51:49;;;;;;;0.70;0.70;;;;;;;19.46;nan;100629.03;4988682;28;20025;-85
2023/08/08 00:54:14;;;;;;;0.60;0.60;;;;;;;19.46;nan;100629.88;4990955;28;20238;-85
2023/08/08 00:56:40;;;;;;;0.63;0.63;;;;;;;19.45;nan;100619.44;4976077;28;20117;-84
2023/08/08 00:59:07;;;;;;;0.60;0.60;;;;;;;19.46;nan;100621.13;4972384;28;20124;-85
2023/08/08 01:01:32;;;;;;;0.75;0.60;;;;;;;19.46;nan;100623.78;4971657;28;20801;-85
2023/08/08 01:03:59;;;;;;;0.60;0.60;;;;;;;19.46;nan;100618.50;4994650;28;20036;-85
2023/08/08 01:07:03;;;;;;;0.40;0.40;;;;;;;19.45;nan;100619.44;4976421;28;20036;-85
2023/08/08 01:09:43;;;;;;;0.40;0.40;;;;;;;19.46;nan;100626.41;4988234;28;20025;-85
2023/08/08 01:12:11;;;;;;;0.50;0.50;;;;;;;19.46;nan;100621.13;4985927;28;20081;-85
2023/08/08 01:14:37;;;;;;;0.50;0.50;;;;;;;19.45;nan;100614.16;4966499;28;20034;-84
2023/08/08 01:17:03;;;;;;;0.60;0.60;;;;;;;19.44;nan;100621.22;4968645;28;20089;-85
2023/08/08 01:19:30;;;;;;;0.50;0.50;;;;;;;19.45;nan;100630.81;4972710;28;20118;-84
2023/08/08 01:22:01;;;;;;;0.50;0.50;;;;;;;19.44;nan;100629.13;4975020;28;20658;-85
2023/08/08 01:24:29;;;;;;;0.55;0.55;;;;;;;19.45;nan;100619.44;4998590;28;20038;-85
2023/08/08 01:26:54;;;;;;;0.40;0.40;;;;;;;19.45;nan;100622.06;4994727;28;20033;-85
2023/08/08 01:29:19;;;;;;;0.50;0.50;;;;;;;19.44;nan;100620.38;4992051;28;20560;-86
2023/08/08 01:31:45;;;;;;;0.50;0.50;;;;;;;19.43;nan;100619.53;4993646;28;20100;-86
2023/08/08 01:34:10;;;;;;;0.57;0.57;;;;;;;19.43;nan;100616.91;5001750;28;20030;-87
2023/08/08 01:36:42;;;;;;;0.60;0.60;;;;;;;19.44;nan;100628.28;4992836;28;20030;-85
2023/08/08 01:39:12;;;;;;;0.60;0.60;;;;;;;19.43;nan;100618.69;4990483;28;20033;-85
2023/08/08 01:41:38;;;;;;;0.50;0.50;;;;;;;19.44;nan;100617.75;4974947;28;20470;-85
2023/08/08 01:44:04;;;;;;;0.70;0.70;;;;;;;19.43;nan;100619.53;4989107;28;20034;-85
2023/08/08 01:46:29;;;;;;;0.50;0.50;;;;;;;19.43;nan;100613.44;4996101;28;20036;-86
2023/08/08 01:48:58;;;;;;;0.55;0.55;;;;;;;19.42;nan;100609.13;4992196;28;20481;-86
2023/08/08 01:51:25;;;;;;;0.50;0.50;;;;;;;19.43;nan;100616.06;4989397;28;20886;-85
2023/08/08 01:53:51;;;;;;;0.57;0.57;;;;;;;19.43;nan;100614.28;4991313;28;20516;-85
2023/08/08 01:56:16;;;;;;;0.50;0.50;;;;;;;19.41;nan;100616.16;4996044;28;20030;-85
2023/08/08 01:58:42;;;;;;;0.50;0.50;;;;;;;19.43;nan;100619.53;4991383;28;20038;-85
2023/08/08 02:01:07;;;;;;;0.45;0.45;;;;;;;19.43;nan;100618.69;4990268;28;20061;-85
2023/08/08 02:03:32;;;;;;;0.60;0.60;;;;;;;19.43;nan;100616.06;4992361;28;20058;-85
2023/08/08 02:05:58;;;;;;;0.65;0.65;;;;;;;19.43;nan;100623.97;4977004;28;20076;-85
2023/08/08 02:08:23;;;;;;;0.60;0.60;;;;;;;19.42;nan;100617.00;4990739;28;20742;-85
2023/08/08 02:10:58;;;;;;;0.50;0.50;;;;;;;19.41;nan;100604.81;4990924;28;20089;-85
2023/08/08 02:13:23;;;;;;;0.50;0.50;;;;;;;19.41;nan;100604.81;4981424;28;20041;-85
2023/08/08 02:15:48;;;;;;;0.45;0.45;;;;;;;19.41;nan;100607.44;4994948;28;20030;-85
2023/08/08 02:18:14;;;;;;;0.73;0.68;;;;;;;19.41;nan;100604.81;4973435;28;20030;-85
2023/08/08 02:20:39;;;;;;;0.65;0.65;;;;;;;19.42;nan;100606.47;4990670;28;20050;-85
2023/08/08 02:23:04;;;;;;;0.70;0.70;;;;;;;19.41;nan;100604.81;4985325;28;20034;-85
2023/08/08 02:25:30;;;;;;;0.45;0.45;;;;;;;19.40;nan;100608.34;4992899;28;20121;-85
2023/08/08 02:27:56;;;;;;;0.55;0.55;;;;;;;19.40;nan;100603.09;4987302;28;20509;-85
2023/08/08 02:31:02;;;;;;;0.50;0.50;;;;;;;19.40;nan;100601.31;4990570;28;20048;-85
2023/08/08 02:33:28;;;;;;;0.50;0.50;;;;;;;19.41;nan;100594.28;4990514;28;20041;-85
2023/08/08 02:35:53;;;;;;;0.50;0.50;;;;;;;19.39;nan;100604.03;4987528;28;20039;-85
2023/08/08 02:38:18;;;;;;;0.60;0.57;;;;;;;19.40;nan;100605.72;4992370;28;20085;-85
2023/08/08 02:40:43;;;;;;;0.60;0.60;;;;;;;19.41;nan;100604.81;4989216;28;20053;-85
2023/08/08 02:43:10;;;;;;;0.50;0.50;;;;;;;19.39;nan;100601.41;4991994;28;20110;-85
2023/08/08 02:45:36;;;;;;;0.57;0.57;;;;;;;19.40;nan;100605.72;4995736;28;20484;-85
2023/08/08 02:48:01;;;;;;;0.47;0.47;;;;;;;19.40;nan;100603.09;4973446;28;20045;-85
2023/08/08 02:50:26;;;;;;;0.50;0.50;;;;;;;19.39;nan;100602.25;4991585;28;20416;-85
2023/08/08 02:52:52;;;;;;;0.50;0.50;;;;;;;19.39;nan;100604.88;4976716;28;20065;-85
2023/08/08 02:55:17;;;;;;;0.50;0.50;;;;;;;19.40;nan;100603.09;4999339;28;20473;-85
2023/08/08 02:57:43;;;;;;;0.60;0.60;;;;;;;19.39;nan;100604.88;4989348;28;20757;-85
2023/08/08 03:00:10;;;;;;;0.90;0.73;;;;;;;19.40;nan;100608.34;4973257;28;20033;-85
2023/08/08 03:02:35;;;;;;;0.60;0.60;;;;;;;19.39;nan;100596.97;4991290;28;20034;-84
2023/08/08 03:05:00;;;;;;;0.55;0.55;;;;;;;19.40;nan;100611.00;4974742;28;20624;-85
2023/08/08 03:07:26;;;;;;;0.50;0.50;;;;;;;19.39;nan;100612.78;4973841;28;20358;-85
2023/08/08 03:09:51;;;;;;;0.60;0.60;;;;;;;19.39;nan;100606.69;4987495;28;20528;-85
2023/08/08 03:12:17;;;;;;;0.65;0.65;;;;;;;19.39;nan;100601.41;4986691;28;20030;-85
2023/08/08 03:14:42;;;;;;;0.60;0.60;;;;;;;19.38;nan;100603.19;4985368;28;20030;-85
2023/08/08 03:17:09;;;;;;;0.55;0.55;;;;;;;19.38;nan;100607.63;4988901;28;20113;-84
2023/08/08 03:19:34;;;;;;;0.60;0.60;;;;;;;19.39;nan;100609.31;4992622;28;20060;-85
2023/08/08 03:21:59;;;;;;;0.50;0.50;;;;;;;19.38;nan;100602.34;4987309;28;20050;-85
2023/08/08 03:24:25;;;;;;;0.60;0.60;;;;;;;19.38;nan;100599.72;4995183;28;20456;-85
2023/08/08 03:26:50;;;;;;;0.57;0.57;;;;;;;19.37;nan;100593.63;4975071;28;20041;-85
2023/08/08 03:29:15;;;;;;;0.52;0.52;;;;;;;19.37;nan;100601.53;4990699;28;20062;-86
2023/08/08 03:31:41;;;;;;;0.50;0.50;;;;;;;19.37;nan;100593.63;4992216;28;20098;-85
2023/08/08 03:34:06;;;;;;;0.50;0.50;;;;;;;19.37;nan;100603.31;4993325;28;20063;-86
2023/08/08 03:36:31;;;;;;;0.60;0.60;;;;;;;19.37;nan;100598.03;4991600;28;20113;-86
2023/08/08 03:38:57;;;;;;;0.50;0.50;;;;;;;19.36;nan;100594.56;4989703;28;20056;-85
2023/08/08 03:41:22;;;;;;;0.40;0.40;;;;;;;19.37;nan;100598.03;4988099;28;20026;-86
2023/08/08 03:43:47;;;;;;;0.50;0.50;;;;;;;19.37;nan;100598.03;4980876;28;20038;-86
2023/08/08 03:46:13;;;;;;;0.60;0.60;;;;;;;19.36;nan;100591.09;4984496;28;20042;-85
2023/08/08 03:48:39;;;;;;;0.60;0.60;;;;;;;19.36;nan;100591.94;4989131;28;20034;-85
2023/08/08 03:51:04;;;;;;;0.60;0.60;;;;;;;19.35;nan;100587.63;4989987;28;20113;-85
2023/08/08 03:53:29;;;;;;;0.47;0.47;;;;;;;19.36;nan;100588.47;4989473;28;20058;-85
2023/08/08 03:55:55;;;;;;;0.60;0.60;;;;;;;19.35;nan;100587.63;4987229;28;20222;-85
2023/08/08 03:58:20;;;;;;;0.60;0.60;;;;;;;19.36;nan;100596.38;4987246;28;20084;-85
2023/08/08 04:00:46;;;;;;;0.70;0.70;;;;;;;19.36;nan;100599.00;4970608;28;20486;-86
2023/08/08 04:03:15;;;;;;;0.57;0.50;;;;;;;19.36;nan;100605.09;4989816;28;20514;-86
2023/08/08 04:05:46;;;;;;;0.60;0.60;;;;;;;19.36;nan;100599.84;4976736;28;20061;-85
2023/08/08 04:08:11;;;;;;;0.50;0.50;;;;;;;19.35;nan;100602.59;4986689;28;20994;-86
2023/08/08 04:10:36;;;;;;;0.60;0.60;;;;;;;19.35;nan;100606.06;4990821;28;20034;-86
2023/08/08 04:13:02;;;;;;;0.50;0.50;;;;;;;19.35;nan;100599.94;4990130;28;20045;-86
2023/08/08 04:15:27;;;;;;;1.85;0.65;;;;;;;19.35;nan;100599.94;4984301;28;20073;-86
2023/08/08 04:17:52;;;;;;;0.50;0.50;;;;;;;19.36;nan;100605.09;4992575;28;20030;-86
2023/08/08 04:20:18;;;;;;;0.60;0.60;;;;;;;19.35;nan;100597.31;4988405;28;20445;-86
2023/08/08 04:22:43;;;;;;;0.65;0.65;;;;;;;19.35;nan;100610.47;4972079;28;20062;-86
2023/08/08 04:25:09;;;;;;;0.40;0.40;;;;;;;19.34;nan;100604.34;4995164;28;20129;-85
2023/08/08 04:27:34;;;;;;;0.55;0.55;;;;;;;19.33;nan;100603.50;4991038;28;20056;-86
2023/08/08 04:30:30;;;;;;;0.47;0.47;;;;;;;19.34;nan;100604.34;4990459;28;20120;-86
2023/08/08 04:32:56;;;;;;;0.50;0.50;;;;;;;19.35;nan;100616.59;4981189;28;20569;-86
2023/08/08 04:35:21;;;;;;;0.82;0.68;;;;;;;19.34;nan;100617.50;4998142;28;20030;-85
2023/08/08 04:37:46;;;;;;;0.60;0.60;;;;;;;19.34;nan;100614.88;4986932;28;20133;-85
2023/08/08 04:40:12;;;;;;;0.63;0.50;;;;;;;19.33;nan;100619.28;4972186;28;20755;-85
2023/08/08 04:42:37;;;;;;;0.55;0.55;;;;;;;19.33;nan;100624.56;4989697;28;20603;-84
2023/08/08 04:45:03;;;;;;;0.57;0.57;;;;;;;19.33;nan;100616.66;4971532;28;20580;-85
2023/08/08 04:47:28;;;;;;;0.60;0.60;;;;;;;19.32;nan;100625.50;4970072;28;20801;-85
2023/08/08 04:49:54;;;;;;;0.38;0.38;;;;;;;19.34;nan;100620.13;4971023;28;20080;-84
2023/08/08 04:52:19;;;;;;;0.40;0.40;;;;;;;19.33;nan;100621.94;4967354;28;20113;-85
2023/08/08 04:54:44;;;;;;;0.45;0.45;;;;;;;19.33;nan;100624.56;4979377;28;20117;-85
2023/08/08 04:57:10;;;;;;;0.50;0.50;;;;;;;19.34;nan;100622.78;4992098;28;20032;-85
2023/08/08 04:59:35;;;;;;;0.70;0.70;;;;;;;19.34;nan;100625.41;4990808;28;20049;-85
2023/08/08 05:02:00;;;;;;;0.60;0.60;;;;;;;19.33;nan;100635.09;4992133;28;20025;-85
2023/08/08 05:04:26;;;;;;;0.50;0.50;;;;;;;19.33;nan;100624.56;4993860;28;20054;-85
2023/08/08 05:06:51;;;;;;;0.60;0.60;;;;;;;19.34;nan;100628.03;4972439;28;20125;-85
2023/08/08 05:09:16;;;;;;;0.68;0.68;;;;;;;19.33;nan;100629.00;4991436;28;20501;-85
2023/08/08 05:11:42;;;;;;;0.68;0.68;;;;;;;19.35;nan;100623.66;4975710;28;20378;-85
2023/08/08 05:14:07;;;;;;;0.68;0.68;;;;;;;19.33;nan;100624.56;4970955;28;20057;-85
2023/08/08 05:16:32;;;;;;;0.50;0.50;;;;;;;19.32;nan;100614.97;4997240;28;20773;-85
2023/08/08 05:18:58;;;;;;;0.77;0.77;;;;;;;19.33;nan;100614.03;4974952;28;20076;-85
2023/08/08 05:21:24;;;;;;;0.52;0.52;;;;;;;19.33;nan;100618.47;4975649;28;20845;-85
2023/08/08 05:23:49;;;;;;;0.60;0.60;;;;;;;19.33;nan;100616.66;4977129;28;20061;-85
2023/08/08 05:26:15;;;;;;;0.50;0.50;;;;;;;19.33;nan;100607.94;4989984;28;20030;-84
2023/08/08 05:28:40;;;;;;;0.60;0.60;;;;;;;19.33;nan;100613.19;4991547;28;20502;-84
2023/08/08 05:31:06;;;;;;;0.70;0.70;;;;;;;19.33;nan;100608.75;4990678;28;20065;-84
2023/08/08 05:33:31;;;;;;;0.60;0.60;;;;;;;19.32;nan;100612.34;4996531;28;20055;-85
2023/08/08 05:35:56;;;;;;;0.70;0.70;;;;;;;19.33;nan;100614.03;4992921;28;20038;-85
2023/08/08 05:38:22;;;;;;;0.70;0.70;;;;;;;19.34;nan;100609.59;4991626;28;20125;-85
2023/08/08 05:40:47;;;;;;;0.65;0.65;;;;;;;19.33;nan;100608.75;4991128;28;20061;-86
2023/08/08 05:43:16;;;;;;;0.50;0.50;;;;;;;19.33;nan;100602.66;4985015;28;20033;-84
2023/08/08 05:45:42;;;;;;;0.60;0.60;;;;;;;19.33;nan;100607.94;4999092;28;20022;-85
2023/08/08 05:48:11;;;;;;;0.65;0.65;;;;;;;19.34;nan;100609.59;4988567;28;20484;-86
2023/08/08 05:50:43;;;;;;;0.60;0.60;;;;;;;19.34;nan;100604.34;4991146;28;20457;-91
2023/08/08 05:53:08;;;;;;;0.68;0.68;;;;;;;19.35;nan;100613.13;4992820;28;20072;-86
2023/08/08 05:55:34;;;;;;;0.60;0.60;;;;;;;19.34;nan;100617.50;4989014;28;20034;-85
2023/08/08 05:57:59;;;;;;;0.85;0.77;;;;;;;19.34;nan;100617.50;4990116;28;20058;-85
2023/08/08 06:00:24;;;;;;;0.50;0.50;;;;;;;19.35;nan;100615.75;4991877;28;20030;-84
2023/08/08 06:02:50;;;;;;;0.43;0.43;;;;;;;19.34;nan;100620.13;4993511;28;20397;-85
2023/08/08 06:05:16;;;;;;;0.50;0.50;;;;;;;19.33;nan;100629.81;4991720;28;20787;-84
2023/08/08 06:07:42;;;;;;;0.50;0.50;;;;;;;19.35;nan;100631.53;4973715;28;20040;-84
2023/08/08 06:10:08;;;;;;;0.60;0.60;;;;;;;19.34;nan;100620.13;4973245;28;20487;-85
2023/08/08 06:12:33;;;;;;;0.40;0.40;;;;;;;19.35;nan;100621.00;4991878;28;20038;-84
2023/08/08 06:14:59;;;;;;;0.60;0.60;;;;;;;19.35;nan;100627.13;4985986;28;20085;-85
2023/08/08 06:17:24;;;;;;;0.63;0.63;;;;;;;19.35;nan;100624.47;4971258;28;20040;-85
2023/08/08 06:19:50;;;;;;;0.50;0.50;;;;;;;19.35;nan;100621.00;4974438;28;20042;-85
2023/08/08 06:22:16;;;;;;;0.68;0.68;;;;;;;19.36;nan;100630.59;4992774;28;20045;-85
2023/08/08 06:24:41;;;;;;;0.50;0.50;;;;;;;19.36;nan;100630.59;4993210;28;20103;-86
2023/08/08 06:27:07;;;;;;;0.43;0.43;;;;;;;19.36;nan;100627.97;4990416;28;20034;-85
2023/08/08 06:29:32;;;;;;;0.40;0.40;;;;;;;19.35;nan;100627.13;4974968;28;20385;-85
2023/08/08 06:31:57;;;;;;;0.52;0.52;;;;;;;19.37;nan;100625.22;4987956;28;20109;-85
2023/08/08 06:34:23;;;;;;;0.70;0.70;;;;;;;19.37;nan;100630.47;4970079;28;20053;-85
2023/08/08 06:36:48;;;;;;;0.70;0.70;;;;;;;19.36;nan;100623.53;4991022;28;20026;-85
2023/08/08 06:39:13;;;;;;;0.90;0.77;;;;;;;19.36;nan;100628.81;4988213;28;20030;-85
2023/08/08 06:41:39;;;;;;;0.50;0.50;;;;;;;19.38;nan;100631.31;4988555;28;20110;-85
2023/08/08 06:44:04;;;;;;;0.70;0.70;;;;;;;19.38;nan;100629.53;4983628;28;20453;-86
2023/08/08 06:46:30;;;;;;;0.60;0.60;;;;;;;19.38;nan;100634.78;4990839;28;20338;-86
2023/08/08 06:48:58;;;;;;;0.50;0.50;;;;;;;19.39;nan;100630.38;4988230;28;20054;-85
2023/08/08 06:51:25;;;;;;;0.60;0.60;;;;;;;19.39;nan;100625.09;4972514;28;20037;-85
2023/08/08 06:53:50;;;;;;;0.47;0.47;;;;;;;19.39;nan;100617.19;4987712;28;20096;-85
2023/08/08 06:56:15;;;;;;;0.60;0.60;;;;;;;19.40;nan;100624.16;4992274;28;20038;-85
2023/08/08 06:58:41;;;;;;;0.50;0.50;;;;;;;19.38;nan;100616.38;4989270;28;20045;-85
2023/08/08 07:01:06;;;;;;;0.68;0.68;;;;;;;19.38;nan;100615.53;4987439;28;20037;-85
2023/08/08 07:03:31;;;;;;;0.70;0.70;;;;;;;19.38;nan;100611.09;4991703;28;20029;-84
2023/08/08 07:05:57;;;;;;;0.70;0.70;;;;;;;19.38;nan;100616.38;4989904;28;20047;-84
2023/08/08 07:08:23;;;;;;;0.50;0.50;;;;;;;19.40;nan;100613.63;4987239;28;20030;-85
2023/08/08 07:10:49;;;;;;;0.60;0.60;;;;;;;19.38;nan;100611.09;4990515;28;20049;-85
2023/08/08 07:13:15;;;;;;;0.50;0.50;;;;;;;19.39;nan;100609.31;4992664;28;20033;-85
2023/08/08 07:15:45;;;;;;;0.60;0.60;;;;;;;19.39;nan;100617.19;4986701;28;20128;-86
2023/08/08 07:18:11;;;;;;;0.77;0.77;;;;;;;19.38;nan;100611.09;4972101;28;20478;-86
2023/08/08 07:20:36;;;;;;;0.60;0.60;;;;;;;19.40;nan;100618.88;4987241;28;20049;-86
2023/08/08 07:23:02;;;;;;;0.60;0.60;;;;;;;19.40;nan;100619.75;4977139;28;20026;-86
2023/08/08 07:25:27;;;;;;;0.60;0.60;;;;;;;19.39;nan;100610.16;4971596;28;20034;-85
2023/08/08 07:27:52;;;;;;;0.63;0.60;;;;;;;19.39;nan;100607.50;4971822;28;20026;-84
2023/08/08 07:30:18;;;;;;;0.70;0.70;;;;;;;19.39;nan;100610.16;4989516;28;20014;-85
2023/08/08 07:32:43;;;;;;;0.47;0.47;;;;;;;19.40;nan;100611.00;4989161;28;20038;-87
2023/08/08 07:35:09;;;;;;;0.70;0.70;;;;;;;19.41;nan;100621.44;4991471;28;20038;-84
2023/08/08 07:37:35;;;;;;;0.57;0.57;;;;;;;19.40;nan;100614.50;4973495;28;20418;-84
2023/08/08 07:40:01;;;;;;;0.63;0.63;;;;;;;19.41;nan;100612.69;4987538;28;20783;-85
2023/08/08 07:42:26;;;;;;;0.70;0.70;;;;;;;19.41;nan;100610.06;4988492;28;20109;-85
2023/08/08 07:44:53;;;;;;;0.60;0.60;;;;;;;19.42;nan;100606.47;4992959;28;20097;-85
2023/08/08 07:47:18;;;;;;;0.68;0.68;;;;;;;19.43;nan;100605.53;4988909;28;20124;-86
2023/08/08 07:49:44;;;;;;;0.60;0.60;;;;;;;19.42;nan;100601.22;4987435;28;20030;-86
2023/08/08 07:52:09;;;;;;;0.55;0.55;;;;;;;19.42;nan;100603.84;4975250;28;20095;-85
2023/08/08 07:54:34;;;;;;;0.60;0.60;;;;;;;19.40;nan;100603.97;4996768;28;20065;-86
2023/08/08 07:57:00;;;;;;;0.60;0.60;;;;;;;19.41;nan;100597.75;4974664;28;20065;-85
2023/08/08 07:59:25;;;;;;;0.57;0.57;;;;;;;19.41;nan;100600.38;4970120;28;20727;-85
2023/08/08 08:01:50;;;;;;;0.63;0.63;;;;;;;19.42;nan;100601.22;4970813;28;20030;-86
2023/08/08 08:04:18;;;;;;;0.65;0.65;;;;;;;19.42;nan;100607.31;4989626;28;20117;-85
2023/08/08 08:06:44;;;;;;;0.65;0.65;;;;;;;19.42;nan;100603.84;4986204;28;20086;-85
2023/08/08 08:09:09;;;;;;;0.70;0.70;;;;;;;19.43;nan;100600.25;4988001;28;20142;-85
2023/08/08 08:11:34;;;;;;;0.60;0.60;;;;;;;19.42;nan;100599.44;4986813;28;20037;-85
2023/08/08 08:14:00;;;;;;;0.50;0.50;;;;;;;19.43;nan;100597.63;4970106;28;20026;-85
2023/08/08 08:16:25;;;;;;;0.50;0.50;;;;;;;19.44;nan;100609.84;4972606;28;20151;-84
2023/08/08 08:18:51;;;;;;;0.60;0.60;;;;;;;19.43;nan;100603.75;4987476;28;20045;-84
2023/08/08 08:21:17;;;;;;;0.63;0.63;;;;;;;19.43;nan;100603.75;4970852;28;20046;-85
2023/08/08 08:23:43;;;;;;;0.60;0.60;;;;;;;19.44;nan;100597.53;4991538;28;20136;-84
2023/08/08 08:26:12;;;;;;;0.75;0.75;;;;;;;19.44;nan;100596.69;4974866;28;20523;-85
2023/08/08 08:28:39;;;;;;;0.60;0.60;;;;;;;19.43;nan;100595.00;4972491;28;20741;-85
2023/08/08 08:31:06;;;;;;;0.75;0.68;;;;;;;19.44;nan;100594.03;4990609;28;20026;-85
2023/08/08 08:33:31;;;;;;;0.60;0.60;;;;;;;19.43;nan;100595.84;4971006;28;20034;-85
2023/08/08 08:35:56;;;;;;;0.68;0.60;;;;;;;19.43;nan;100590.56;4996369;28;20040;-85
2023/08/08 08:38:22;;;;;;;0.55;0.55;;;;;;;19.45;nan;100595.72;4989843;28;20818;-84
2023/08/08 08:40:48;;;;;;;0.70;0.70;;;;;;;19.45;nan;100590.47;4991900;28;20833;-84
2023/08/08 08:43:15;;;;;;;0.50;0.50;;;;;;;19.45;nan;100590.47;4992026;28;20657;-86
2023/08/08 08:45:43;;;;;;;0.70;0.70;;;;;;;19.45;nan;100585.19;4976195;28;20033;-85
2023/08/08 08:48:12;;;;;;;0.50;0.50;;;;;;;19.45;nan;100593.94;4990873;28;20053;-85
2023/08/08 08:50:39;;;;;;;0.57;0.57;;;;;;;19.45;nan;100588.66;4987773;28;20030;-85
2023/08/08 08:53:05;;;;;;;0.60;0.60;;;;;;;19.45;nan;100587.81;4993384;28;20371;-84
2023/08/08 08:55:30;;;;;;;0.65;0.65;;;;;;;19.44;nan;100589.63;4988716;28;20030;-85
2023/08/08 08:57:55;;;;;;;0.60;0.60;;;;;;;19.45;nan;100579.94;4992355;28;20638;-85
2023/08/08 09:00:21;;;;;;;0.80;0.80;;;;;;;19.46;nan;100586.91;4990132;28;20028;-85
2023/08/08 09:02:47;;;;;;;0.60;0.60;;;;;;;19.46;nan;100586.91;4992229;28;20030;-84
2023/08/08 09:05:13;;;;;;;0.60;0.60;;;;;;;19.46;nan;100576.38;4973585;28;20031;-85
2023/08/08 09:07:38;;;;;;;0.50;0.50;;;;;;;19.46;nan;100569.31;4990077;28;20136;-84
2023/08/08 09:10:04;;;;;;;0.60;0.55;;;;;;;19.47;nan;100568.38;4975560;28;20062;-84
2023/08/08 09:12:31;;;;;;;0.57;0.57;;;;;;;19.47;nan;100571.00;4993315;28;20034;-85
2023/08/08 09:14:57;;;;;;;0.63;0.60;;;;;;;19.47;nan;100567.53;4992084;28;20978;-85
2023/08/08 09:17:26;;;;;;;0.60;0.60;;;;;;;19.48;nan;100569.19;4989083;28;20096;-85
2023/08/08 09:19:53;;;;;;;0.88;0.88;;;;;;;19.47;nan;100560.47;4990574;28;20034;-84
2023/08/08 09:22:18;;;;;;;0.50;0.50;;;;;;;19.46;nan;100558.78;4989953;28;20073;-84
2023/08/08 09:24:46;;;;;;;0.63;0.63;;;;;;;19.47;nan;100565.72;4971450;28;20111;-84
2023/08/08 09:27:12;;;;;;;0.70;0.70;;;;;;;19.48;nan;100563.94;4987673;28;20061;-84
2023/08/08 09:29:37;;;;;;;0.70;0.70;;;;;;;19.48;nan;100567.41;4974614;28;20031;-85
2023/08/08 09:32:04;;;;;;;0.60;0.60;;;;;;;19.48;nan;100559.50;4973596;28;20146;-84
2023/08/08 09:34:30;;;;;;;0.60;0.60;;;;;;;19.49;nan;100560.34;4996044;28;20429;-84
2023/08/08 09:36:55;;;;;;;0.57;0.57;;;;;;;19.49;nan;100570.88;4993967;28;20030;-85
2023/08/08 09:39:21;;;;;;;0.77;0.70;;;;;;;19.49;nan;100558.56;4987250;28;20459;-85
2023/08/08 09:41:47;;;;;;;0.68;0.68;;;;;;;19.49;nan;100555.09;4989138;28;20034;-85
2023/08/08 09:44:12;;;;;;;0.57;0.57;;;;;;;19.50;nan;100562.03;4990076;28;20061;-84
2023/08/08 09:46:39;;;;;;;0.70;0.70;;;;;;;19.50;nan;100546.22;4989120;28;21211;-85
2023/08/08 09:49:05;;;;;;;0.70;0.70;;;;;;;19.48;nan;100548.97;4972393;28;20038;-85
2023/08/08 09:51:30;;;;;;;0.70;0.70;;;;;;;19.48;nan;100551.63;4992198;28;20044;-84
2023/08/08 09:53:56;;;;;;;0.60;0.60;;;;;;;19.48;nan;100548.97;4970740;28;20041;-84
2023/08/08 09:56:23;;;;;;;0.50;0.50;;;;;;;19.49;nan;100549.81;4987272;28;20721;-85
2023/08/08 09:58:49;;;;;;;0.70;0.70;;;;;;;19.50;nan;100541.81;4989244;28;20120;-85
2023/08/08 10:01:14;;;;;;;0.60;0.60;;;;;;;19.50;nan;100533.06;4972128;28;20040;-86
2023/08/08 10:03:42;;;;;;;0.60;0.60;;;;;;;19.50;nan;100539.16;4993054;28;21007;-85
2023/08/08 10:06:08;;;;;;;0.70;0.70;;;;;;;19.49;nan;100536.66;4976454;28;20835;-84
2023/08/08 10:08:33;;;;;;;0.70;0.70;;;;;;;19.49;nan;100526.97;4989047;28;20109;-84
2023/08/08 10:10:59;;;;;;;0.63;0.60;;;;;;;19.50;nan;100538.34;4972314;28;20057;-86
2023/08/08 10:13:26;;;;;;;0.60;0.60;;;;;;;19.51;nan;100537.38;4989013;28;20105;-86
2023/08/08 10:15:52;;;;;;;0.60;0.60;;;;;;;19.51;nan;100529.47;4994995;28;20026;-85
2023/08/08 10:18:20;;;;;;;0.60;0.60;;;;;;;19.52;nan;100537.28;4988461;28;20029;-84
2023/08/08 10:20:50;;;;;;;0.75;0.60;;;;;;;19.51;nan;100547.91;4970298;28;20084;-85
2023/08/08 10:23:15;;;;;;;;;;;;;;;19.52;nan;100531.19;4993420;28;20081;-87
2023/08/08 10:25:50;;;;;;;0.70;0.70;;;;;;;19.57;nan;100537.81;4989971;28;19921;-84
2023/08/08 10:28:18;;;;;;;0.80;0.80;;;;;;;19.55;nan;100528.31;4974777;28;20034;-85
2023/08/08 10:30:54;;;;;;;1.17;0.80;;;;;;;19.54;nan;100524.00;4987577;28;20037;-85
2023/08/08 10:33:22;;;;;;;0.75;0.75;;;;;;;19.53;nan;100524.97;4993098;28;20041;-85
2023/08/08 10:36:03;;;;;;;0.57;0.57;;;;;;;19.52;nan;100520.66;4975518;28;20069;-84
2023/08/08 10:38:50;;;;;;;0.68;0.68;;;;;;;19.51;nan;100524.22;4988346;28;20038;-87
2023/08/08 10:41:20;;;;;;;0.70;0.70;;;;;;;19.51;nan;100524.22;4971196;28;20045;-85
2023/08/08 10:43:53;;;;;;;0.70;0.70;;;;;;;19.52;nan;100528.56;4973591;28;20040;-84
2023/08/08 10:46:29;;;;;;;0.68;0.68;;;;;;;19.51;nan;100522.44;4976801;28;20084;-86
2023/08/08 10:49:01;;;;;;;0.60;0.50;;;;;;;19.52;nan;100518.03;4987717;28;20041;-85
2023/08/08 10:51:33;;;;;;;1.20;0.90;;;;;;;19.53;nan;100524.97;4987726;28;20038;-86
2023/08/08 10:53:58;;;;;;;0.60;0.60;;;;;;;19.53;nan;100514.44;4991099;28;20056;-84
2023/08/08 10:56:24;;;;;;;0.60;0.60;;;;;;;19.51;nan;100513.69;4975599;28;20488;-84
2023/08/08 10:58:49;;;;;;;0.68;0.68;;;;;;;19.53;nan;100514.44;4972215;28;20034;-85
2023/08/08 11:01:16;;;;;;;0.63;0.63;;;;;;;19.52;nan;100518.03;4986903;28;20037;-85
2023/08/08 11:03:44;;;;;;;1.25;0.70;;;;;;;19.54;nan;100510.84;4992604;28;20034;-86
2023/08/08 11:06:10;;;;;;;0.77;0.77;;;;;;;19.54;nan;100513.47;4988075;28;20092;-83
2023/08/08 11:08:38;;;;;;;0.80;0.80;;;;;;;19.56;nan;100519.47;4989042;28;20125;-85
2023/08/08 11:11:04;;;;;;;0.75;0.70;;;;;;;19.55;nan;100512.53;4971924;28;20030;-85
2023/08/08 11:13:30;;;;;;;0.90;0.75;;;;;;;19.56;nan;100514.19;4976911;28;20038;-85
2023/08/08 11:15:55;;;;;;;0.68;0.68;;;;;;;19.56;nan;100508.94;4992230;28;22184;-85
2023/08/08 11:18:21;;;;;;;0.50;0.50;;;;;;;19.57;nan;100518.56;4972599;28;20025;-85
2023/08/08 11:20:48;;;;;;;0.75;0.75;;;;;;;19.56;nan;100516.84;4987615;28;20097;-85
2023/08/08 11:23:13;;;;;;;0.70;0.70;;;;;;;19.56;nan;100514.19;4975222;28;20192;-85
2023/08/08 11:25:41;;;;;;;0.70;0.70;;;;;;;19.56;nan;100508.94;4989581;28;20829;-85
2023/08/08 11:28:07;;;;;;;0.75;0.75;;;;;;;19.57;nan;100508.00;4987729;28;20457;-85
2023/08/08 11:30:35;;;;;;;0.50;0.50;;;;;;;19.57;nan;100505.38;4987570;28;20034;-84
2023/08/08 11:33:01;;;;;;;0.70;0.70;;;;;;;19.57;nan;100505.38;4990586;28;20200;-85
2023/08/08 11:35:29;;;;;;;0.82;0.70;;;;;;;19.57;nan;100508.00;4987187;28;20388;-85
2023/08/08 11:37:58;;;;;;;0.80;0.80;;;;;;;19.58;nan;100502.66;4972500;28;20034;-85